sensor_id;sensor_type;location;lat;lon;timestamp;pressure;altitude;pressure_sealevel;temperature;humidity
40850;BME280;26571;41.610;25.380;2023-02-04T00:00:14;98283.38;;;4.69;nan
40850;BME280;26571;41.610;25.380;2023-02-04T00:02:40;98302.75;;;4.76;nan
40850;BME280;26571;41.610;25.380;2023-02-04T00:05:06;98268.97;;;4.64;nan
40850;BME280;26571;41.610;25.380;2023-02-04T00:07:32;98295.91;;;4.84;nan
40850;BME280;26571;41.610;25.380;2023-02-04T00:09:57;98298.66;;;4.83;nan
40850;BME280;26571;41.610;25.380;2023-02-04T00:12:23;98288.22;;;4.73;nan
40850;BME280;26571;41.610;25.380;2023-02-04T00:14:48;98274.44;;;4.61;nan
40850;BME280;26571;41.610;25.380;2023-02-04T00:17:14;98290.50;;;4.66;nan
40850;BME280;26571;41.610;25.380;2023-02-04T00:19:40;98282.44;;;4.70;nan
40850;BME280;26571;41.610;25.380;2023-02-04T00:22:06;98282.44;;;4.79;nan
40850;BME280;26571;41.610;25.380;2023-02-04T00:24:33;98281.88;;;4.76;nan
40850;BME280;26571;41.610;25.380;2023-02-04T00:26:58;98280.25;;;4.75;nan
40850;BME280;26571;41.610;25.380;2023-02-04T00:29:24;98279.66;;;4.61;nan
40850;BME280;26571;41.610;25.380;2023-02-04T00:31:49;98263.78;;;4.74;nan
40850;BME280;26571;41.610;25.380;2023-02-04T00:34:14;98280.84;;;4.88;nan
40850;BME280;26571;41.610;25.380;2023-02-04T00:36:40;98276.16;;;4.91;nan
40850;BME280;26571;41.610;25.380;2023-02-04T00:39:05;98270.81;;;4.93;nan
40850;BME280;26571;41.610;25.380;2023-02-04T00:41:30;98263.41;;;4.98;nan
40850;BME280;26571;41.610;25.380;2023-02-04T00:43:56;98258.59;;;4.93;nan
40850;BME280;26571;41.610;25.380;2023-02-04T00:46:21;98256.41;;;4.89;nan
40850;BME280;26571;41.610;25.380;2023-02-04T00:48:46;98248.44;;;5.00;nan
40850;BME280;26571;41.610;25.380;2023-02-04T00:51:12;98244.59;;;5.04;nan
40850;BME280;26571;41.610;25.380;2023-02-04T00:53:37;98231.31;;;4.57;nan
40850;BME280;26571;41.610;25.380;2023-02-04T00:56:03;98232.22;;;4.37;nan
40850;BME280;26571;41.610;25.380;2023-02-04T00:58:28;98229.97;;;4.53;nan
40850;BME280;26571;41.610;25.380;2023-02-04T01:00:53;98226.69;;;4.71;nan
40850;BME280;26571;41.610;25.380;2023-02-04T01:03:19;98234.81;;;4.87;nan
40850;BME280;26571;41.610;25.380;2023-02-04T01:05:44;98228.13;;;4.94;nan
40850;BME280;26571;41.610;25.380;2023-02-04T01:08:10;98194.59;;;4.80;nan
40850;BME280;26571;41.610;25.380;2023-02-04T01:10:35;98162.75;;;4.66;nan
40850;BME280;26571;41.610;25.380;2023-02-04T01:13:01;98219.06;;;4.88;nan
40850;BME280;26571;41.610;25.380;2023-02-04T01:15:26;98209.44;;;4.89;nan
40850;BME280;26571;41.610;25.380;2023-02-04T01:17:51;98209.72;;;4.86;nan
40850;BME280;26571;41.610;25.380;2023-02-04T01:20:17;98203.00;;;4.83;nan
40850;BME280;26571;41.610;25.380;2023-02-04T01:22:42;98195.28;;;4.82;nan
40850;BME280;26571;41.610;25.380;2023-02-04T01:25:08;98188.97;;;4.75;nan
40850;BME280;26571;41.610;25.380;2023-02-04T01:27:33;98187.47;;;4.82;nan
40850;BME280;26571;41.610;25.380;2023-02-04T01:29:59;98175.78;;;4.66;nan
40850;BME280;26571;41.610;25.380;2023-02-04T01:32:24;98178.63;;;4.44;nan
40850;BME280;26571;41.610;25.380;2023-02-04T01:34:50;98182.09;;;4.54;nan
40850;BME280;26571;41.610;25.380;2023-02-04T01:37:15;98173.16;;;4.66;nan
40850;BME280;26571;41.610;25.380;2023-02-04T01:39:42;98167.53;;;4.52;nan
40850;BME280;26571;41.610;25.380;2023-02-04T01:42:07;98161.88;;;4.37;nan
40850;BME280;26571;41.610;25.380;2023-02-04T01:44:33;98158.88;;;4.41;nan
40850;BME280;26571;41.610;25.380;2023-02-04T01:46:58;98157.91;;;4.52;nan
40850;BME280;26571;41.610;25.380;2023-02-04T01:49:24;98158.59;;;4.45;nan
40850;BME280;26571;41.610;25.380;2023-02-04T01:51:50;98149.00;;;4.45;nan
40850;BME280;26571;41.610;25.380;2023-02-04T01:54:15;98143.78;;;4.45;nan
40850;BME280;26571;41.610;25.380;2023-02-04T01:56:46;98155.63;;;4.69;nan
40850;BME280;26571;41.610;25.380;2023-02-04T01:59:15;98144.50;;;4.66;nan
40850;BME280;26571;41.610;25.380;2023-02-04T02:01:43;98127.06;;;4.57;nan
40850;BME280;26571;41.610;25.380;2023-02-04T02:04:11;98137.25;;;4.80;nan
40850;BME280;26571;41.610;25.380;2023-02-04T02:06:38;98134.78;;;4.88;nan
40850;BME280;26571;41.610;25.380;2023-02-04T02:09:05;98135.59;;;4.98;nan
40850;BME280;26571;41.610;25.380;2023-02-04T02:11:31;98133.81;;;5.08;nan
40850;BME280;26571;41.610;25.380;2023-02-04T02:13:56;98133.25;;;5.05;nan
40850;BME280;26571;41.610;25.380;2023-02-04T02:16:22;98136.41;;;4.99;nan
40850;BME280;26571;41.610;25.380;2023-02-04T02:18:48;98122.13;;;5.03;nan
40850;BME280;26571;41.610;25.380;2023-02-04T02:21:18;98113.91;;;4.98;nan
40850;BME280;26571;41.610;25.380;2023-02-04T02:26:14;98098.25;;;4.88;nan
40850;BME280;26571;41.610;25.380;2023-02-04T02:28:40;98105.69;;;4.92;nan
40850;BME280;26571;41.610;25.380;2023-02-04T02:31:06;98100.97;;;4.96;nan
40850;BME280;26571;41.610;25.380;2023-02-04T02:33:32;98098.78;;;5.01;nan
40850;BME280;26571;41.610;25.380;2023-02-04T02:35:58;98100.97;;;5.15;nan
40850;BME280;26571;41.610;25.380;2023-02-04T02:38:24;98068.19;;;5.03;nan
40850;BME280;26571;41.610;25.380;2023-02-04T02:40:49;98097.13;;;5.19;nan
40850;BME280;26571;41.610;25.380;2023-02-04T02:43:19;98089.94;;;5.22;nan
40850;BME280;26571;41.610;25.380;2023-02-04T02:45:46;98082.97;;;5.22;nan
40850;BME280;26571;41.610;25.380;2023-02-04T02:48:12;98069.19;;;4.73;nan
40850;BME280;26571;41.610;25.380;2023-02-04T02:50:37;98069.44;;;4.89;nan
40850;BME280;26571;41.610;25.380;2023-02-04T02:53:08;98037.19;;;4.81;nan
40850;BME280;26571;41.610;25.380;2023-02-04T02:55:34;98075.16;;;5.12;nan
40850;BME280;26571;41.610;25.380;2023-02-04T02:58:00;98077.31;;;5.17;nan
40850;BME280;26571;41.610;25.380;2023-02-04T03:00:27;98044.16;;;4.90;nan
40850;BME280;26571;41.610;25.380;2023-02-04T03:05:34;98055.41;;;5.00;nan
40850;BME280;26571;41.610;25.380;2023-02-04T03:08:00;98048.56;;;4.80;nan
40850;BME280;26571;41.610;25.380;2023-02-04T03:10:26;98046.38;;;4.85;nan
40850;BME280;26571;41.610;25.380;2023-02-04T03:12:51;98039.22;;;4.87;nan
40850;BME280;26571;41.610;25.380;2023-02-04T03:15:17;98030.19;;;4.62;nan
40850;BME280;26571;41.610;25.380;2023-02-04T03:17:43;98024.38;;;3.81;nan
40850;BME280;26571;41.610;25.380;2023-02-04T03:20:11;98017.72;;;3.48;nan
40850;BME280;26571;41.610;25.380;2023-02-04T03:22:37;97981.22;;;3.19;nan
40850;BME280;26571;41.610;25.380;2023-02-04T03:25:03;98010.91;;;3.56;nan
40850;BME280;26571;41.610;25.380;2023-02-04T03:27:29;98012.59;;;3.86;nan
40850;BME280;26571;41.610;25.380;2023-02-04T03:29:54;98017.28;;;4.02;nan
40850;BME280;26571;41.610;25.380;2023-02-04T03:32:19;98009.63;;;4.20;nan
40850;BME280;26571;41.610;25.380;2023-02-04T03:34:45;97996.47;;;4.22;nan
40850;BME280;26571;41.610;25.380;2023-02-04T03:37:10;97984.16;;;4.24;nan
40850;BME280;26571;41.610;25.380;2023-02-04T03:39:35;97975.91;;;4.28;nan
40850;BME280;26571;41.610;25.380;2023-02-04T03:42:01;97971.63;;;4.37;nan
40850;BME280;26571;41.610;25.380;2023-02-04T03:44:26;97970.53;;;4.49;nan
40850;BME280;26571;41.610;25.380;2023-02-04T03:46:52;97973.97;;;4.59;nan
40850;BME280;26571;41.610;25.380;2023-02-04T03:49:20;97978.75;;;4.64;nan
40850;BME280;26571;41.610;25.380;2023-02-04T03:51:45;97973.00;;;4.60;nan
40850;BME280;26571;41.610;25.380;2023-02-04T03:54:11;97967.63;;;4.62;nan
40850;BME280;26571;41.610;25.380;2023-02-04T03:56:36;97958.69;;;4.74;nan
40850;BME280;26571;41.610;25.380;2023-02-04T03:59:01;97957.31;;;4.80;nan
40850;BME280;26571;41.610;25.380;2023-02-04T04:01:27;97950.16;;;4.82;nan
40850;BME280;26571;41.610;25.380;2023-02-04T04:03:53;97949.22;;;4.83;nan
40850;BME280;26571;41.610;25.380;2023-02-04T04:06:18;97956.34;;;4.81;nan
40850;BME280;26571;41.610;25.380;2023-02-04T04:08:43;97945.91;;;4.81;nan
40850;BME280;26571;41.610;25.380;2023-02-04T04:11:09;97941.00;;;4.78;nan
40850;BME280;26571;41.610;25.380;2023-02-04T04:13:34;97934.69;;;4.71;nan
40850;BME280;26571;41.610;25.380;2023-02-04T04:16:00;97939.50;;;4.65;nan
40850;BME280;26571;41.610;25.380;2023-02-04T04:18:25;97951.31;;;4.60;nan
40850;BME280;26571;41.610;25.380;2023-02-04T04:20:50;97930.63;;;4.58;nan
40850;BME280;26571;41.610;25.380;2023-02-04T04:23:16;97929.25;;;4.54;nan
40850;BME280;26571;41.610;25.380;2023-02-04T04:25:41;97926.09;;;4.51;nan
40850;BME280;26571;41.610;25.380;2023-02-04T04:28:06;97923.72;;;4.57;nan
40850;BME280;26571;41.610;25.380;2023-02-04T04:30:32;97930.03;;;4.64;nan
40850;BME280;26571;41.610;25.380;2023-02-04T04:32:57;97922.34;;;4.73;nan
40850;BME280;26571;41.610;25.380;2023-02-04T04:35:23;97928.38;;;4.73;nan
40850;BME280;26571;41.610;25.380;2023-02-04T04:37:48;97925.91;;;4.72;nan
40850;BME280;26571;41.610;25.380;2023-02-04T04:40:13;97930.84;;;4.75;nan
40850;BME280;26571;41.610;25.380;2023-02-04T04:42:39;97921.50;;;4.72;nan
40850;BME280;26571;41.610;25.380;2023-02-04T04:45:10;97922.47;;;4.71;nan
40850;BME280;26571;41.610;25.380;2023-02-04T04:47:35;97915.47;;;4.72;nan
40850;BME280;26571;41.610;25.380;2023-02-04T04:50:01;97891.13;;;4.53;nan
40850;BME280;26571;41.610;25.380;2023-02-04T04:52:27;97896.03;;;4.56;nan
40850;BME280;26571;41.610;25.380;2023-02-04T04:54:52;97898.94;;;4.53;nan
40850;BME280;26571;41.610;25.380;2023-02-04T04:57:18;97904.25;;;4.61;nan
40850;BME280;26571;41.610;25.380;2023-02-04T04:59:43;97897.41;;;4.60;nan
40850;BME280;26571;41.610;25.380;2023-02-04T05:02:08;97894.72;;;4.43;nan
40850;BME280;26571;41.610;25.380;2023-02-04T05:04:34;97888.66;;;4.42;nan
40850;BME280;26571;41.610;25.380;2023-02-04T05:06:59;97882.63;;;4.32;nan
40850;BME280;26571;41.610;25.380;2023-02-04T05:09:25;97871.41;;;4.31;nan
40850;BME280;26571;41.610;25.380;2023-02-04T05:11:50;97885.94;;;4.34;nan
40850;BME280;26571;41.610;25.380;2023-02-04T05:14:15;97849.28;;;3.98;nan
40850;BME280;26571;41.610;25.380;2023-02-04T05:16:41;97892.78;;;4.35;nan
40850;BME280;26571;41.610;25.380;2023-02-04T05:19:06;97888.94;;;4.39;nan
40850;BME280;26571;41.610;25.380;2023-02-04T05:21:31;97886.47;;;4.37;nan
40850;BME280;26571;41.610;25.380;2023-02-04T05:23:57;97899.38;;;4.39;nan
40850;BME280;26571;41.610;25.380;2023-02-04T05:26:22;97899.06;;;4.42;nan
40850;BME280;26571;41.610;25.380;2023-02-04T05:28:48;97890.44;;;4.41;nan
40850;BME280;26571;41.610;25.380;2023-02-04T05:31:13;97893.59;;;4.45;nan
40850;BME280;26571;41.610;25.380;2023-02-04T05:33:38;97901.81;;;4.50;nan
40850;BME280;26571;41.610;25.380;2023-02-04T05:36:04;97903.44;;;4.51;nan
40850;BME280;26571;41.610;25.380;2023-02-04T05:38:29;97898.94;;;4.53;nan
40850;BME280;26571;41.610;25.380;2023-02-04T05:40:55;97887.25;;;4.57;nan
40850;BME280;26571;41.610;25.380;2023-02-04T05:43:20;97889.19;;;4.55;nan
40850;BME280;26571;41.610;25.380;2023-02-04T05:45:46;97875.41;;;4.73;nan
40850;BME280;26571;41.610;25.380;2023-02-04T05:48:11;97870.88;;;4.75;nan
40850;BME280;26571;41.610;25.380;2023-02-04T05:50:36;97873.81;;;4.89;nan
40850;BME280;26571;41.610;25.380;2023-02-04T05:53:02;97878.97;;;4.72;nan
40850;BME280;26571;41.610;25.380;2023-02-04T05:55:27;97881.34;;;4.55;nan
40850;BME280;26571;41.610;25.380;2023-02-04T05:57:53;97889.69;;;4.69;nan
40850;BME280;26571;41.610;25.380;2023-02-04T06:00:18;97886.81;;;4.99;nan
40850;BME280;26571;41.610;25.380;2023-02-04T06:02:44;97882.97;;;5.03;nan
40850;BME280;26571;41.610;25.380;2023-02-04T06:05:09;97897.97;;;5.64;nan
40850;BME280;26571;41.610;25.380;2023-02-04T06:07:34;97898.97;;;5.99;nan
40850;BME280;26571;41.610;25.380;2023-02-04T06:10:00;97900.09;;;5.96;nan
40850;BME280;26571;41.610;25.380;2023-02-04T06:12:25;97895.88;;;5.86;nan
40850;BME280;26571;41.610;25.380;2023-02-04T06:14:51;97884.47;;;5.69;nan
40850;BME280;26571;41.610;25.380;2023-02-04T06:17:16;97885.59;;;5.66;nan
40850;BME280;26571;41.610;25.380;2023-02-04T06:19:41;97902.22;;;5.65;nan
40850;BME280;26571;41.610;25.380;2023-02-04T06:22:07;97903.25;;;5.55;nan
40850;BME280;26571;41.610;25.380;2023-02-04T06:24:32;97895.28;;;5.56;nan
40850;BME280;26571;41.610;25.380;2023-02-04T06:26:57;97904.25;;;5.54;nan
40850;BME280;26571;41.610;25.380;2023-02-04T06:29:23;97908.75;;;5.52;nan
40850;BME280;26571;41.610;25.380;2023-02-04T06:31:48;97912.59;;;5.57;nan
40850;BME280;26571;41.610;25.380;2023-02-04T06:34:14;97858.50;;;5.04;nan
40850;BME280;26571;41.610;25.380;2023-02-04T06:36:40;97912.66;;;5.48;nan
40850;BME280;26571;41.610;25.380;2023-02-04T06:39:05;97877.94;;;5.19;nan
40850;BME280;26571;41.610;25.380;2023-02-04T06:41:31;97905.72;;;5.56;nan
40850;BME280;26571;41.610;25.380;2023-02-04T06:43:56;97902.66;;;5.61;nan
40850;BME280;26571;41.610;25.380;2023-02-04T06:46:21;97902.72;;;5.51;nan
40850;BME280;26571;41.610;25.380;2023-02-04T06:48:47;97907.94;;;5.51;nan
40850;BME280;26571;41.610;25.380;2023-02-04T06:51:13;97856.09;;;5.21;nan
40850;BME280;26571;41.610;25.380;2023-02-04T06:53:38;97898.63;;;5.66;nan
40850;BME280;26571;41.610;25.380;2023-02-04T06:56:04;97896.63;;;5.60;nan
40850;BME280;26571;41.610;25.380;2023-02-04T06:58:30;97900.97;;;5.69;nan
40850;BME280;26571;41.610;25.380;2023-02-04T07:00:55;97907.38;;;5.57;nan
40850;BME280;26571;41.610;25.380;2023-02-04T07:03:21;97900.81;;;5.53;nan
40850;BME280;26571;41.610;25.380;2023-02-04T07:05:46;97908.31;;;5.56;nan
40850;BME280;26571;41.610;25.380;2023-02-04T07:08:11;97907.97;;;5.69;nan
40850;BME280;26571;41.610;25.380;2023-02-04T07:10:37;97908.06;;;5.77;nan
40850;BME280;26571;41.610;25.380;2023-02-04T07:13:02;97911.94;;;5.91;nan
40850;BME280;26571;41.610;25.380;2023-02-04T07:15:28;97905.56;;;6.03;nan
40850;BME280;26571;41.610;25.380;2023-02-04T07:17:53;97894.78;;;6.06;nan
40850;BME280;26571;41.610;25.380;2023-02-04T07:20:19;97891.06;;;6.09;nan
40850;BME280;26571;41.610;25.380;2023-02-04T07:22:44;97877.34;;;6.07;nan
40850;BME280;26571;41.610;25.380;2023-02-04T07:25:10;97877.34;;;6.07;nan
40850;BME280;26571;41.610;25.380;2023-02-04T07:27:38;97878.16;;;6.07;nan
40850;BME280;26571;41.610;25.380;2023-02-04T07:30:04;97882.75;;;6.13;nan
40850;BME280;26571;41.610;25.380;2023-02-04T07:32:29;97875.59;;;6.15;nan
40850;BME280;26571;41.610;25.380;2023-02-04T07:34:58;97869.81;;;6.30;nan
40850;BME280;26571;41.610;25.380;2023-02-04T07:37:24;97874.06;;;6.31;nan
40850;BME280;26571;41.610;25.380;2023-02-04T07:39:49;97875.03;;;6.30;nan
40850;BME280;26571;41.610;25.380;2023-02-04T07:42:14;97871.31;;;6.32;nan
40850;BME280;26571;41.610;25.380;2023-02-04T07:44:40;97862.28;;;6.27;nan
40850;BME280;26571;41.610;25.380;2023-02-04T07:47:05;97867.28;;;6.46;nan
40850;BME280;26571;41.610;25.380;2023-02-04T07:49:30;97878.53;;;6.64;nan
40850;BME280;26571;41.610;25.380;2023-02-04T07:51:56;97878.94;;;6.78;nan
40850;BME280;26571;41.610;25.380;2023-02-04T07:54:22;97876.22;;;6.61;nan
40850;BME280;26571;41.610;25.380;2023-02-04T07:56:47;97887.47;;;6.88;nan
40850;BME280;26571;41.610;25.380;2023-02-04T07:59:13;97881.44;;;6.95;nan
40850;BME280;26571;41.610;25.380;2023-02-04T08:01:38;97875.78;;;7.08;nan
40850;BME280;26571;41.610;25.380;2023-02-04T08:04:03;97864.97;;;7.03;nan
40850;BME280;26571;41.610;25.380;2023-02-04T08:06:29;97877.09;;;7.04;nan
40850;BME280;26571;41.610;25.380;2023-02-04T08:08:54;97882.06;;;7.23;nan
40850;BME280;26571;41.610;25.380;2023-02-04T08:11:20;97891.25;;;7.36;nan
40850;BME280;26571;41.610;25.380;2023-02-04T08:13:45;97876.91;;;7.48;nan
40850;BME280;26571;41.610;25.380;2023-02-04T08:16:11;97866.59;;;7.55;nan
40850;BME280;26571;41.610;25.380;2023-02-04T08:18:36;97883.78;;;7.57;nan
40850;BME280;26571;41.610;25.380;2023-02-04T08:21:01;97885.94;;;7.62;nan
40850;BME280;26571;41.610;25.380;2023-02-04T08:23:29;97886.53;;;7.39;nan
40850;BME280;26571;41.610;25.380;2023-02-04T08:25:54;97876.78;;;8.31;nan
40850;BME280;26571;41.610;25.380;2023-02-04T08:28:20;97859.81;;;8.83;nan
40850;BME280;26571;41.610;25.380;2023-02-04T08:30:45;97862.47;;;9.14;nan
40850;BME280;26571;41.610;25.380;2023-02-04T08:33:10;97873.13;;;9.74;nan
40850;BME280;26571;41.610;25.380;2023-02-04T08:35:36;97867.72;;;9.99;nan
40850;BME280;26571;41.610;25.380;2023-02-04T08:38:01;97866.03;;;10.06;nan
40850;BME280;26571;41.610;25.380;2023-02-04T08:40:27;97853.22;;;10.26;nan
40850;BME280;26571;41.610;25.380;2023-02-04T08:42:52;97855.38;;;10.60;nan
40850;BME280;26571;41.610;25.380;2023-02-04T08:45:17;97857.53;;;10.86;nan
40850;BME280;26571;41.610;25.380;2023-02-04T08:47:43;97860.75;;;11.32;nan
40850;BME280;26571;41.610;25.380;2023-02-04T08:50:09;97859.81;;;11.55;nan
40850;BME280;26571;41.610;25.380;2023-02-04T08:52:35;97848.47;;;12.19;nan
40850;BME280;26571;41.610;25.380;2023-02-04T08:55:01;97839.53;;;12.82;nan
40850;BME280;26571;41.610;25.380;2023-02-04T08:57:26;97804.88;;;12.99;nan
40850;BME280;26571;41.610;25.380;2023-02-04T08:59:51;97826.59;;;13.29;nan
40850;BME280;26571;41.610;25.380;2023-02-04T09:02:17;97821.41;;;13.68;nan
40850;BME280;26571;41.610;25.380;2023-02-04T09:04:42;97821.44;;;14.08;nan
40850;BME280;26571;41.610;25.380;2023-02-04T09:07:08;97816.94;;;14.35;nan
40850;BME280;26571;41.610;25.380;2023-02-04T09:09:33;97807.97;;;14.50;nan
40850;BME280;26571;41.610;25.380;2023-02-04T09:11:58;97810.84;;;14.28;nan
40850;BME280;26571;41.610;25.380;2023-02-04T09:14:25;97813.28;;;14.10;nan
40850;BME280;26571;41.610;25.380;2023-02-04T09:16:51;97803.91;;;14.14;nan
40850;BME280;26571;41.610;25.380;2023-02-04T09:19:16;97764.00;;;13.95;nan
40850;BME280;26571;41.610;25.380;2023-02-04T09:21:48;97796.19;;;13.73;nan
40850;BME280;26571;41.610;25.380;2023-02-04T09:24:13;97790.03;;;13.72;nan
40850;BME280;26571;41.610;25.380;2023-02-04T09:26:38;97785.78;;;13.58;nan
40850;BME280;26571;41.610;25.380;2023-02-04T09:29:04;97770.47;;;13.47;nan
40850;BME280;26571;41.610;25.380;2023-02-04T09:31:29;97772.56;;;13.71;nan
40850;BME280;26571;41.610;25.380;2023-02-04T09:33:55;97776.00;;;13.71;nan
40850;BME280;26571;41.610;25.380;2023-02-04T09:36:20;97766.03;;;13.80;nan
40850;BME280;26571;41.610;25.380;2023-02-04T09:38:45;97768.28;;;13.83;nan
40850;BME280;26571;41.610;25.380;2023-02-04T09:41:11;97759.94;;;13.60;nan
40850;BME280;26571;41.610;25.380;2023-02-04T09:43:39;97757.00;;;13.22;nan
40850;BME280;26571;41.610;25.380;2023-02-04T09:46:18;97748.47;;;12.30;nan
40850;BME280;26571;41.610;25.380;2023-02-04T09:48:44;97759.34;;;12.14;nan
40850;BME280;26571;41.610;25.380;2023-02-04T09:51:11;97735.94;;;12.04;nan
40850;BME280;26571;41.610;25.380;2023-02-04T09:53:39;97738.72;;;12.03;nan
40850;BME280;26571;41.610;25.380;2023-02-04T09:56:05;97736.06;;;12.24;nan
40850;BME280;26571;41.610;25.380;2023-02-04T09:58:33;97726.53;;;12.30;nan
40850;BME280;26571;41.610;25.380;2023-02-04T10:01:19;97717.53;;;12.18;nan
40850;BME280;26571;41.610;25.380;2023-02-04T10:03:47;97697.28;;;12.25;nan
40850;BME280;26571;41.610;25.380;2023-02-04T10:06:22;97666.53;;;12.45;nan
40850;BME280;26571;41.610;25.380;2023-02-04T10:08:49;97683.66;;;12.69;nan
40850;BME280;26571;41.610;25.380;2023-02-04T10:11:17;97651.75;;;12.64;nan
40850;BME280;26571;41.610;25.380;2023-02-04T10:13:48;97671.34;;;13.03;nan
40850;BME280;26571;41.610;25.380;2023-02-04T10:16:18;97669.41;;;13.44;nan
40850;BME280;26571;41.610;25.380;2023-02-04T10:18:45;97658.63;;;13.33;nan
40850;BME280;26571;41.610;25.380;2023-02-04T10:21:18;97669.00;;;13.74;nan
40850;BME280;26571;41.610;25.380;2023-02-04T10:23:50;97665.94;;;13.64;nan
40850;BME280;26571;41.610;25.380;2023-02-04T10:26:19;97648.06;;;13.53;nan
40850;BME280;26571;41.610;25.380;2023-02-04T10:28:45;97613.66;;;13.13;nan
40850;BME280;26571;41.610;25.380;2023-02-04T10:34:22;97651.91;;;13.30;nan
40850;BME280;26571;41.610;25.380;2023-02-04T10:36:53;97652.06;;;13.09;nan
40850;BME280;26571;41.610;25.380;2023-02-04T10:39:25;97656.78;;;12.52;nan
40850;BME280;26571;41.610;25.380;2023-02-04T10:41:55;97654.41;;;12.16;nan
40850;BME280;26571;41.610;25.380;2023-02-04T10:44:33;97621.78;;;11.61;nan
40850;BME280;26571;41.610;25.380;2023-02-04T10:47:15;97656.66;;;11.63;nan
40850;BME280;26571;41.610;25.380;2023-02-04T10:49:51;97637.00;;;11.09;nan
40850;BME280;26571;41.610;25.380;2023-02-04T10:52:18;97645.63;;;11.03;nan
40850;BME280;26571;41.610;25.380;2023-02-04T10:54:45;97647.25;;;10.83;nan
40850;BME280;26571;41.610;25.380;2023-02-04T10:57:23;97637.69;;;10.97;nan
40850;BME280;26571;41.610;25.380;2023-02-04T10:59:57;97642.69;;;11.34;nan
40850;BME280;26571;41.610;25.380;2023-02-04T11:02:42;97634.50;;;11.51;nan
40850;BME280;26571;41.610;25.380;2023-02-04T11:05:18;97625.97;;;11.49;nan
40850;BME280;26571;41.610;25.380;2023-02-04T11:07:45;97630.59;;;11.47;nan
40850;BME280;26571;41.610;25.380;2023-02-04T11:10:13;97620.84;;;11.41;nan
40850;BME280;26571;41.610;25.380;2023-02-04T11:12:45;97579.34;;;11.21;nan
40850;BME280;26571;41.610;25.380;2023-02-04T11:20:43;97612.56;;;10.94;nan
40850;BME280;26571;41.610;25.380;2023-02-04T11:28:26;97592.06;;;10.90;nan
40850;BME280;26571;41.610;25.380;2023-02-04T11:31:01;97598.47;;;11.30;nan
40850;BME280;26571;41.610;25.380;2023-02-04T11:33:41;97598.03;;;11.54;nan
40850;BME280;26571;41.610;25.380;2023-02-04T11:36:11;97596.28;;;11.68;nan
40850;BME280;26571;41.610;25.380;2023-02-04T11:38:38;97582.63;;;11.58;nan
40850;BME280;26571;41.610;25.380;2023-02-04T11:41:15;97590.53;;;11.58;nan
40850;BME280;26571;41.610;25.380;2023-02-04T11:43:42;97593.84;;;11.67;nan
40850;BME280;26571;41.610;25.380;2023-02-04T11:46:15;97587.91;;;11.93;nan
40850;BME280;26571;41.610;25.380;2023-02-04T11:48:42;97580.72;;;12.14;nan
40850;BME280;26571;41.610;25.380;2023-02-04T11:51:16;97567.34;;;12.23;nan
40850;BME280;26571;41.610;25.380;2023-02-04T11:53:42;97560.50;;;12.41;nan
40850;BME280;26571;41.610;25.380;2023-02-04T11:56:19;97565.19;;;11.92;nan
40850;BME280;26571;41.610;25.380;2023-02-04T11:58:46;97567.44;;;11.60;nan
40850;BME280;26571;41.610;25.380;2023-02-04T12:01:22;97569.78;;;11.48;nan
40850;BME280;26571;41.610;25.380;2023-02-04T12:03:55;97527.16;;;11.38;nan
40850;BME280;26571;41.610;25.380;2023-02-04T12:06:25;97557.16;;;12.13;nan
40850;BME280;26571;41.610;25.380;2023-02-04T12:08:51;97551.94;;;12.20;nan
40850;BME280;26571;41.610;25.380;2023-02-04T12:11:27;97553.00;;;12.45;nan
40850;BME280;26571;41.610;25.380;2023-02-04T12:14:07;97555.09;;;12.70;nan
40850;BME280;26571;41.610;25.380;2023-02-04T12:16:59;97550.66;;;13.03;nan
40850;BME280;26571;41.610;25.380;2023-02-04T12:19:26;97536.81;;;13.08;nan
40850;BME280;26571;41.610;25.380;2023-02-04T12:21:52;97550.66;;;13.23;nan
40850;BME280;26571;41.610;25.380;2023-02-04T12:24:19;97550.66;;;13.23;nan
40850;BME280;26571;41.610;25.380;2023-02-04T12:26:44;97542.75;;;13.23;nan
40850;BME280;26571;41.610;25.380;2023-02-04T12:29:09;97536.44;;;13.24;nan
40850;BME280;26571;41.610;25.380;2023-02-04T12:31:35;97549.41;;;13.32;nan
40850;BME280;26571;41.610;25.380;2023-02-04T12:34:01;97546.97;;;13.37;nan
40850;BME280;26571;41.610;25.380;2023-02-04T12:36:26;97545.16;;;13.38;nan
40850;BME280;26571;41.610;25.380;2023-02-04T12:38:53;97538.25;;;13.24;nan
40850;BME280;26571;41.610;25.380;2023-02-04T12:41:19;97548.19;;;13.15;nan
40850;BME280;26571;41.610;25.380;2023-02-04T12:43:45;97538.03;;;12.99;nan
40850;BME280;26571;41.610;25.380;2023-02-04T12:46:10;97542.91;;;12.95;nan
40850;BME280;26571;41.610;25.380;2023-02-04T12:48:36;97539.03;;;12.98;nan
40850;BME280;26571;41.610;25.380;2023-02-04T12:51:05;97549.22;;;13.01;nan
40850;BME280;26571;41.610;25.380;2023-02-04T12:53:31;97540.47;;;13.07;nan
40850;BME280;26571;41.610;25.380;2023-02-04T12:55:56;97551.66;;;13.22;nan
40850;BME280;26571;41.610;25.380;2023-02-04T12:58:21;97539.66;;;13.26;nan
40850;BME280;26571;41.610;25.380;2023-02-04T13:00:47;97533.75;;;13.11;nan
40850;BME280;26571;41.610;25.380;2023-02-04T13:03:13;97530.91;;;13.19;nan
40850;BME280;26571;41.610;25.380;2023-02-04T13:05:38;97532.94;;;12.97;nan
40850;BME280;26571;41.610;25.380;2023-02-04T13:08:04;97549.44;;;12.99;nan
40850;BME280;26571;41.610;25.380;2023-02-04T13:10:29;97547.19;;;12.96;nan
40850;BME280;26571;41.610;25.380;2023-02-04T13:12:54;97539.66;;;13.00;nan
40850;BME280;26571;41.610;25.380;2023-02-04T13:15:20;97541.88;;;13.03;nan
40850;BME280;26571;41.610;25.380;2023-02-04T13:17:45;97543.50;;;13.17;nan
40850;BME280;26571;41.610;25.380;2023-02-04T13:20:11;97551.25;;;13.18;nan
40850;BME280;26571;41.610;25.380;2023-02-04T13:22:37;97550.47;;;13.25;nan
40850;BME280;26571;41.610;25.380;2023-02-04T13:25:03;97545.56;;;13.22;nan
40850;BME280;26571;41.610;25.380;2023-02-04T13:27:28;97546.56;;;13.27;nan
40850;BME280;26571;41.610;25.380;2023-02-04T13:29:55;97542.53;;;13.38;nan
40850;BME280;26571;41.610;25.380;2023-02-04T13:32:21;97550.81;;;13.55;nan